Time;durP1;ratioP1;P1;durP2;ratioP2;P2;SDS_P1;SDS_P2;PMS_P1;PMS_P2;Temp;Humidity;BMP_temperature;BMP_pressure;BME280_temperature;BME280_humidity;BME280_pressure;Samples;Min_cycle;Max_cycle;Signal;HPM_P1;HPM_P2
2022/04/01 00:00:01;;;;;;;14.2;13.0;;;;;;;0.2;100.0;100050;;;;
2022/04/01 00:01:00;;;;;;;14.2;13.0;;;;;;;0.2;100.0;100050;;;;
2022/04/01 00:02:00;;;;;;;12.7;11.7;;;;;;;0.1;100.0;100040;;;;
2022/04/01 00:03:00;;;;;;;12.7;11.7;;;;;;;0.1;100.0;100040;;;;
2022/04/01 00:04:00;;;;;;;12.7;11.7;;;;;;;0.2;100.0;100050;;;;
2022/04/01 00:05:00;;;;;;;12.7;11.7;;;;;;;0.2;100.0;100050;;;;
2022/04/01 00:06:00;;;;;;;12.7;11.7;;;;;;;0.2;100.0;100050;;;;
2022/04/01 00:07:00;;;;;;;12.7;11.7;;;;;;;0.2;100.0;100050;;;;
2022/04/01 00:08:00;;;;;;;12.7;11.7;;;;;;;0.2;100.0;100050;;;;
2022/04/01 00:09:00;;;;;;;12.7;11.7;;;;;;;0.2;100.0;100050;;;;
2022/04/01 00:10:00;;;;;;;12.7;11.7;;;;;;;0.2;100.0;100050;;;;
2022/04/01 00:11:00;;;;;;;12.7;11.7;;;;;;;0.2;100.0;100050;;;;
2022/04/01 00:12:00;;;;;;;12.7;11.7;;;;;;;0.2;100.0;100060;;;;
2022/04/01 00:13:00;;;;;;;12.7;11.7;;;;;;;0.2;100.0;100060;;;;
2022/04/01 00:14:00;;;;;;;12.7;11.7;;;;;;;0.2;100.0;100070;;;;
2022/04/01 00:15:00;;;;;;;12.7;11.7;;;;;;;0.2;100.0;100070;;;;
2022/04/01 00:16:00;;;;;;;12.7;11.7;;;;;;;0.2;100.0;100070;;;;
2022/04/01 00:17:00;;;;;;;12.7;11.7;;;;;;;0.2;100.0;100070;;;;
2022/04/01 00:18:00;;;;;;;12.7;11.7;;;;;;;0.3;100.0;100070;;;;
2022/04/01 00:19:00;;;;;;;12.7;11.7;;;;;;;0.3;100.0;100070;;;;
2022/04/01 00:20:00;;;;;;;12.7;11.7;;;;;;;0.2;100.0;100070;;;;
2022/04/01 00:21:00;;;;;;;12.7;11.7;;;;;;;0.2;100.0;100070;;;;
2022/04/01 00:22:00;;;;;;;13.6;12.3;;;;;;;0.2;100.0;100060;;;;
2022/04/01 00:23:00;;;;;;;13.6;12.3;;;;;;;0.2;100.0;100060;;;;
2022/04/01 00:24:00;;;;;;;13.6;12.3;;;;;;;0.2;100.0;100070;;;;
2022/04/01 00:25:00;;;;;;;13.6;12.3;;;;;;;0.2;100.0;100070;;;;
2022/04/01 00:26:00;;;;;;;13.6;12.3;;;;;;;0.2;100.0;100080;;;;
2022/04/01 00:27:00;;;;;;;13.6;12.3;;;;;;;0.2;100.0;100080;;;;
2022/04/01 00:28:00;;;;;;;13.6;12.3;;;;;;;0.2;100.0;100080;;;;
2022/04/01 00:29:00;;;;;;;13.6;12.3;;;;;;;0.2;100.0;100080;;;;
2022/04/01 00:30:00;;;;;;;13.6;12.3;;;;;;;0.3;100.0;100070;;;;
2022/04/01 00:31:00;;;;;;;13.6;12.3;;;;;;;0.3;100.0;100070;;;;
2022/04/01 00:32:01;;;;;;;13.6;12.3;;;;;;;0.3;100.0;100080;;;;
2022/04/01 00:33:00;;;;;;;13.6;12.3;;;;;;;0.3;100.0;100080;;;;
2022/04/01 00:34:15;;;;;;;13.6;12.3;;;;;;;0.3;100.0;100070;;;;
2022/04/01 00:35:00;;;;;;;13.6;12.3;;;;;;;0.3;100.0;100070;;;;
2022/04/01 00:36:00;;;;;;;13.6;12.3;;;;;;;0.3;100.0;100070;;;;
2022/04/01 00:37:01;;;;;;;13.6;12.3;;;;;;;0.3;100.0;100080;;;;
2022/04/01 00:38:00;;;;;;;13.6;12.3;;;;;;;0.3;100.0;100080;;;;
2022/04/01 00:39:00;;;;;;;13.6;12.3;;;;;;;0.3;100.0;100080;;;;
2022/04/01 00:40:00;;;;;;;13.6;12.3;;;;;;;0.3;100.0;100080;;;;
2022/04/01 00:41:00;;;;;;;13.6;12.3;;;;;;;0.3;100.0;100080;;;;
2022/04/01 00:42:01;;;;;;;13.7;12.5;;;;;;;0.3;100.0;100080;;;;
2022/04/01 00:43:00;;;;;;;13.7;12.5;;;;;;;0.3;100.0;100080;;;;
2022/04/01 00:44:10;;;;;;;13.7;12.5;;;;;;;0.3;100.0;100080;;;;
2022/04/01 00:45:00;;;;;;;13.7;12.5;;;;;;;0.3;100.0;100080;;;;
2022/04/01 00:46:01;;;;;;;13.7;12.5;;;;;;;0.3;100.0;100080;;;;
2022/04/01 00:47:08;;;;;;;13.7;12.5;;;;;;;0.3;100.0;100080;;;;
2022/04/01 00:48:02;;;;;;;13.7;12.5;;;;;;;0.3;100.0;100080;;;;
2022/04/01 00:49:00;;;;;;;13.7;12.5;;;;;;;0.3;100.0;100080;;;;
2022/04/01 00:50:00;;;;;;;13.7;12.5;;;;;;;0.3;100.0;100080;;;;
2022/04/01 00:51:00;;;;;;;13.7;12.5;;;;;;;0.3;100.0;100080;;;;
2022/04/01 00:52:02;;;;;;;13.7;12.5;;;;;;;0.2;100.0;100080;;;;
2022/04/01 00:53:00;;;;;;;13.7;12.5;;;;;;;0.2;100.0;100080;;;;
2022/04/01 00:54:00;;;;;;;13.7;12.5;;;;;;;0.2;100.0;100080;;;;
2022/04/01 00:55:01;;;;;;;13.7;12.5;;;;;;;0.2;100.0;100080;;;;
2022/04/01 00:56:00;;;;;;;13.7;12.5;;;;;;;0.2;100.0;100080;;;;
2022/04/01 00:57:00;;;;;;;13.7;12.5;;;;;;;0.2;100.0;100080;;;;
2022/04/01 00:58:00;;;;;;;13.7;12.5;;;;;;;0.1;100.0;100080;;;;
2022/04/01 00:59:00;;;;;;;13.7;12.5;;;;;;;0.1;100.0;100080;;;;
2022/04/01 01:00:02;;;;;;;13.7;12.5;;;;;;;0.1;100.0;100080;;;;
2022/04/01 01:01:00;;;;;;;13.7;12.5;;;;;;;0.1;100.0;100080;;;;
2022/04/01 01:02:00;;;;;;;12.9;11.8;;;;;;;0.1;100.0;100080;;;;
2022/04/01 01:03:00;;;;;;;12.9;11.8;;;;;;;0.1;100.0;100080;;;;
2022/04/01 01:04:02;;;;;;;12.9;11.8;;;;;;;0.2;100.0;100080;;;;
2022/04/01 01:05:00;;;;;;;12.9;11.8;;;;;;;0.2;100.0;100080;;;;
2022/04/01 01:06:00;;;;;;;12.9;11.8;;;;;;;0.1;100.0;100080;;;;
2022/04/01 01:07:02;;;;;;;12.9;11.8;;;;;;;0.1;100.0;100080;;;;
2022/04/01 01:08:05;;;;;;;12.9;11.8;;;;;;;0.0;100.0;100080;;;;
2022/04/01 01:09:00;;;;;;;12.9;11.8;;;;;;;0.0;100.0;100080;;;;
2022/04/01 01:10:00;;;;;;;12.9;11.8;;;;;;;0.1;100.0;100080;;;;
2022/04/01 01:11:01;;;;;;;12.9;11.8;;;;;;;0.1;100.0;100080;;;;
2022/04/01 01:12:01;;;;;;;12.9;11.8;;;;;;;0.1;100.0;100090;;;;
2022/04/01 01:13:02;;;;;;;12.9;11.8;;;;;;;0.1;100.0;100090;;;;
2022/04/01 01:14:00;;;;;;;12.9;11.8;;;;;;;0.1;100.0;100100;;;;
2022/04/01 01:15:09;;;;;;;12.9;11.8;;;;;;;0.1;100.0;100100;;;;
2022/04/01 01:16:00;;;;;;;12.9;11.8;;;;;;;0.0;100.0;100090;;;;
2022/04/01 01:17:00;;;;;;;12.9;11.8;;;;;;;0.0;100.0;100090;;;;
2022/04/01 01:18:00;;;;;;;12.9;11.8;;;;;;;0.1;100.0;100090;;;;
2022/04/01 01:19:01;;;;;;;12.9;11.8;;;;;;;0.1;100.0;100090;;;;
2022/04/01 01:20:00;;;;;;;12.9;11.8;;;;;;;0.0;100.0;100090;;;;
2022/04/01 01:21:00;;;;;;;12.9;11.8;;;;;;;0.0;100.0;100090;;;;
2022/04/01 01:22:00;;;;;;;12.5;11.5;;;;;;;0.1;100.0;100100;;;;
2022/04/01 01:23:00;;;;;;;12.5;11.5;;;;;;;0.1;100.0;100100;;;;
2022/04/01 01:24:01;;;;;;;12.5;11.5;;;;;;;0.0;100.0;100100;;;;
2022/04/01 01:25:00;;;;;;;12.5;11.5;;;;;;;0.0;100.0;100100;;;;
2022/04/01 01:26:00;;;;;;;12.5;11.5;;;;;;;0.0;100.0;100090;;;;
2022/04/01 01:27:00;;;;;;;12.5;11.5;;;;;;;0.0;100.0;100090;;;;
2022/04/01 01:28:00;;;;;;;12.5;11.5;;;;;;;0.1;100.0;100090;;;;
2022/04/01 01:29:00;;;;;;;12.5;11.5;;;;;;;0.1;100.0;100090;;;;
2022/04/01 01:30:02;;;;;;;12.5;11.5;;;;;;;0.1;100.0;100090;;;;
2022/04/01 01:31:00;;;;;;;12.5;11.5;;;;;;;0.1;100.0;100090;;;;
2022/04/01 01:32:01;;;;;;;12.5;11.5;;;;;;;0.1;100.0;100090;;;;
2022/04/01 01:33:01;;;;;;;12.5;11.5;;;;;;;0.1;100.0;100090;;;;
2022/04/01 01:34:00;;;;;;;12.5;11.5;;;;;;;-0.0;100.0;100090;;;;
2022/04/01 01:35:00;;;;;;;12.5;11.5;;;;;;;-0.0;100.0;100090;;;;
2022/04/01 01:36:00;;;;;;;12.5;11.5;;;;;;;0.0;100.0;100100;;;;
2022/04/01 01:37:01;;;;;;;12.5;11.5;;;;;;;0.0;100.0;100100;;;;
2022/04/01 01:38:01;;;;;;;12.5;11.5;;;;;;;0.0;100.0;100090;;;;
2022/04/01 01:39:00;;;;;;;12.5;11.5;;;;;;;0.0;100.0;100090;;;;
2022/04/01 01:40:00;;;;;;;12.5;11.5;;;;;;;-0.1;100.0;100090;;;;
2022/04/01 01:41:01;;;;;;;12.5;11.5;;;;;;;-0.1;100.0;100090;;;;
2022/04/01 01:42:00;;;;;;;13.7;12.5;;;;;;;0.0;100.0;100090;;;;
2022/04/01 01:43:00;;;;;;;13.7;12.5;;;;;;;0.0;100.0;100090;;;;
2022/04/01 01:44:00;;;;;;;13.7;12.5;;;;;;;0.1;100.0;100100;;;;
2022/04/01 01:45:00;;;;;;;13.7;12.5;;;;;;;0.1;100.0;100100;;;;
2022/04/01 01:46:00;;;;;;;13.7;12.5;;;;;;;0.1;100.0;100100;;;;
2022/04/01 01:47:00;;;;;;;13.7;12.5;;;;;;;0.0;100.0;100100;;;;
2022/04/01 01:48:00;;;;;;;13.7;12.5;;;;;;;0.0;100.0;100100;;;;
2022/04/01 01:49:00;;;;;;;13.7;12.5;;;;;;;0.0;100.0;100100;;;;
2022/04/01 01:55:00;;;;;;;13.7;12.5;;;;;;;0.0;100.0;100110;;;;
2022/04/01 01:56:00;;;;;;;13.7;12.5;;;;;;;0.0;100.0;100110;;;;
2022/04/01 01:57:00;;;;;;;13.7;12.5;;;;;;;0.0;100.0;100110;;;;
2022/04/01 01:58:00;;;;;;;13.7;12.5;;;;;;;0.1;100.0;100110;;;;
2022/04/01 01:59:00;;;;;;;13.7;12.5;;;;;;;0.1;100.0;100110;;;;
2022/04/01 02:00:10;;;;;;;13.7;12.5;;;;;;;0.1;100.0;100110;;;;
2022/04/01 02:01:00;;;;;;;13.7;12.5;;;;;;;0.1;100.0;100110;;;;
2022/04/01 02:02:00;;;;;;;13.5;12.4;;;;;;;0.1;100.0;100110;;;;
2022/04/01 02:03:00;;;;;;;13.5;12.4;;;;;;;0.1;100.0;100110;;;;
2022/04/01 02:04:01;;;;;;;13.5;12.4;;;;;;;0.1;100.0;100120;;;;
2022/04/01 02:05:00;;;;;;;13.5;12.4;;;;;;;0.1;100.0;100120;;;;
2022/04/01 02:06:00;;;;;;;13.5;12.4;;;;;;;0.0;100.0;100110;;;;
2022/04/01 02:07:00;;;;;;;13.5;12.4;;;;;;;0.0;100.0;100110;;;;
2022/04/01 02:08:01;;;;;;;13.5;12.4;;;;;;;0.0;100.0;100120;;;;
2022/04/01 02:09:00;;;;;;;13.5;12.4;;;;;;;0.0;100.0;100120;;;;
2022/04/01 02:10:00;;;;;;;13.5;12.4;;;;;;;-0.0;100.0;100120;;;;
2022/04/01 02:11:00;;;;;;;13.5;12.4;;;;;;;-0.0;100.0;100120;;;;
2022/04/01 02:12:01;;;;;;;13.5;12.4;;;;;;;0.1;100.0;100110;;;;
2022/04/01 02:13:00;;;;;;;13.5;12.4;;;;;;;0.1;100.0;100110;;;;
2022/04/01 02:14:00;;;;;;;13.5;12.4;;;;;;;0.1;100.0;100130;;;;
2022/04/01 02:15:02;;;;;;;13.5;12.4;;;;;;;0.1;100.0;100130;;;;
2022/04/01 02:16:00;;;;;;;13.5;12.4;;;;;;;0.1;100.0;100120;;;;
2022/04/01 02:17:00;;;;;;;13.5;12.4;;;;;;;0.1;100.0;100120;;;;
2022/04/01 02:18:00;;;;;;;13.5;12.4;;;;;;;0.0;100.0;100130;;;;
2022/04/01 02:19:00;;;;;;;13.5;12.4;;;;;;;0.0;100.0;100130;;;;
2022/04/01 02:20:00;;;;;;;13.5;12.4;;;;;;;0.0;100.0;100130;;;;
2022/04/01 02:21:00;;;;;;;13.5;12.4;;;;;;;0.0;100.0;100130;;;;
2022/04/01 02:22:01;;;;;;;14.2;13.1;;;;;;;0.0;100.0;100130;;;;
2022/04/01 02:23:00;;;;;;;14.2;13.1;;;;;;;0.0;100.0;100130;;;;
2022/04/01 02:24:00;;;;;;;14.2;13.1;;;;;;;0.1;100.0;100130;;;;
2022/04/01 02:25:00;;;;;;;14.2;13.1;;;;;;;0.1;100.0;100130;;;;
2022/04/01 02:26:00;;;;;;;14.2;13.1;;;;;;;0.1;100.0;100140;;;;
2022/04/01 02:27:00;;;;;;;14.2;13.1;;;;;;;0.1;100.0;100140;;;;
2022/04/01 02:28:00;;;;;;;14.2;13.1;;;;;;;0.0;100.0;100130;;;;
2022/04/01 02:29:03;;;;;;;14.2;13.1;;;;;;;0.0;100.0;100130;;;;
2022/04/01 02:30:01;;;;;;;14.2;13.1;;;;;;;0.1;100.0;100140;;;;
2022/04/01 02:31:00;;;;;;;14.2;13.1;;;;;;;0.1;100.0;100140;;;;
2022/04/01 02:32:00;;;;;;;14.2;13.1;;;;;;;0.1;100.0;100140;;;;
2022/04/01 02:33:00;;;;;;;14.2;13.1;;;;;;;0.1;100.0;100140;;;;
2022/04/01 02:34:00;;;;;;;14.2;13.1;;;;;;;-0.0;100.0;100140;;;;
2022/04/01 02:35:00;;;;;;;14.2;13.1;;;;;;;-0.0;100.0;100140;;;;
2022/04/01 02:36:00;;;;;;;14.2;13.1;;;;;;;0.1;100.0;100140;;;;
2022/04/01 02:37:04;;;;;;;14.2;13.1;;;;;;;0.1;100.0;100140;;;;
2022/04/01 02:38:01;;;;;;;14.2;13.1;;;;;;;0.1;100.0;100150;;;;
2022/04/01 02:39:01;;;;;;;14.2;13.1;;;;;;;0.1;100.0;100150;;;;
2022/04/01 02:40:00;;;;;;;14.2;13.1;;;;;;;0.1;100.0;100150;;;;
2022/04/01 02:41:00;;;;;;;15.1;13.8;;;;;;;0.1;100.0;100150;;;;
2022/04/01 02:42:00;;;;;;;15.1;13.8;;;;;;;0.0;100.0;100150;;;;
2022/04/01 02:43:00;;;;;;;15.1;13.8;;;;;;;0.0;100.0;100150;;;;
2022/04/01 02:45:00;;;;;;;15.1;13.8;;;;;;;-0.1;100.0;100150;;;;
2022/04/01 02:46:00;;;;;;;15.1;13.8;;;;;;;0.0;100.0;100150;;;;
2022/04/01 02:47:00;;;;;;;15.1;13.8;;;;;;;0.0;100.0;100150;;;;
2022/04/01 02:48:00;;;;;;;15.1;13.8;;;;;;;-0.0;100.0;100140;;;;
2022/04/01 02:49:00;;;;;;;15.1;13.8;;;;;;;-0.0;100.0;100140;;;;
2022/04/01 02:50:00;;;;;;;15.1;13.8;;;;;;;0.0;100.0;100150;;;;
2022/04/01 02:51:00;;;;;;;15.1;13.8;;;;;;;0.0;100.0;100150;;;;
2022/04/01 02:52:00;;;;;;;15.1;13.8;;;;;;;0.1;100.0;100140;;;;
2022/04/01 02:53:00;;;;;;;15.1;13.8;;;;;;;0.1;100.0;100140;;;;
2022/04/01 02:54:00;;;;;;;15.1;13.8;;;;;;;0.0;100.0;100160;;;;
2022/04/01 02:55:00;;;;;;;15.1;13.8;;;;;;;0.0;100.0;100160;;;;
2022/04/01 02:56:00;;;;;;;15.1;13.8;;;;;;;0.0;100.0;100160;;;;
2022/04/01 02:57:00;;;;;;;15.1;13.8;;;;;;;-0.1;100.0;100160;;;;
2022/04/01 02:58:00;;;;;;;15.1;13.8;;;;;;;-0.1;100.0;100160;;;;
2022/04/01 02:59:01;;;;;;;15.1;13.8;;;;;;;-0.1;100.0;100160;;;;
2022/04/01 03:00:00;;;;;;;15.1;13.8;;;;;;;-0.1;100.0;100160;;;;
2022/04/01 03:01:00;;;;;;;18.6;16.9;;;;;;;-0.1;100.0;100160;;;;
2022/04/01 03:02:00;;;;;;;18.6;16.9;;;;;;;-0.1;100.0;100160;;;;
2022/04/01 03:03:00;;;;;;;18.6;16.9;;;;;;;-0.1;100.0;100160;;;;
2022/04/01 03:04:00;;;;;;;18.6;16.9;;;;;;;-0.1;100.0;100160;;;;
2022/04/01 03:05:00;;;;;;;18.6;16.9;;;;;;;-0.1;100.0;100160;;;;
2022/04/01 03:06:00;;;;;;;18.6;16.9;;;;;;;-0.1;100.0;100170;;;;
2022/04/01 03:07:00;;;;;;;18.6;16.9;;;;;;;-0.1;100.0;100170;;;;
2022/04/01 03:08:00;;;;;;;18.6;16.9;;;;;;;-0.1;100.0;100170;;;;
2022/04/01 03:09:00;;;;;;;18.6;16.9;;;;;;;-0.1;100.0;100170;;;;
2022/04/01 03:10:00;;;;;;;18.6;16.9;;;;;;;0.0;100.0;100180;;;;
2022/04/01 03:11:03;;;;;;;18.6;16.9;;;;;;;0.0;100.0;100180;;;;
2022/04/01 03:12:00;;;;;;;18.6;16.9;;;;;;;-0.1;100.0;100170;;;;
2022/04/01 03:13:00;;;;;;;18.6;16.9;;;;;;;-0.1;100.0;100170;;;;
2022/04/01 03:14:00;;;;;;;18.6;16.9;;;;;;;-0.1;100.0;100180;;;;
2022/04/01 03:15:00;;;;;;;18.6;16.9;;;;;;;-0.1;100.0;100180;;;;
2022/04/01 03:16:00;;;;;;;18.6;16.9;;;;;;;-0.1;100.0;100170;;;;
2022/04/01 03:17:00;;;;;;;18.6;16.9;;;;;;;-0.1;100.0;100170;;;;
2022/04/01 03:18:00;;;;;;;18.6;16.9;;;;;;;-0.1;100.0;100180;;;;
2022/04/01 03:19:00;;;;;;;18.6;16.9;;;;;;;-0.1;100.0;100180;;;;
2022/04/01 03:20:01;;;;;;;18.6;16.9;;;;;;;-0.1;100.0;100180;;;;
2022/04/01 03:21:00;;;;;;;19.5;17.7;;;;;;;-0.1;100.0;100180;;;;
2022/04/01 03:22:00;;;;;;;19.5;17.7;;;;;;;-0.1;100.0;100180;;;;
2022/04/01 03:23:00;;;;;;;19.5;17.7;;;;;;;-0.1;100.0;100180;;;;
2022/04/01 03:24:01;;;;;;;19.5;17.7;;;;;;;-0.1;100.0;100190;;;;
2022/04/01 03:25:00;;;;;;;19.5;17.7;;;;;;;-0.1;100.0;100190;;;;
2022/04/01 03:26:00;;;;;;;19.5;17.7;;;;;;;-0.1;100.0;100190;;;;
2022/04/01 03:27:00;;;;;;;19.5;17.7;;;;;;;-0.1;100.0;100190;;;;
2022/04/01 03:28:01;;;;;;;19.5;17.7;;;;;;;-0.1;100.0;100210;;;;
2022/04/01 03:29:00;;;;;;;19.5;17.7;;;;;;;-0.1;100.0;100210;;;;
2022/04/01 03:30:00;;;;;;;19.5;17.7;;;;;;;-0.0;100.0;100210;;;;
2022/04/01 03:31:03;;;;;;;19.5;17.7;;;;;;;-0.0;100.0;100210;;;;
2022/04/01 03:32:00;;;;;;;19.5;17.7;;;;;;;-0.1;100.0;100200;;;;
2022/04/01 03:33:00;;;;;;;19.5;17.7;;;;;;;-0.1;100.0;100200;;;;
2022/04/01 03:34:00;;;;;;;19.5;17.7;;;;;;;-0.1;100.0;100200;;;;
2022/04/01 03:35:00;;;;;;;19.5;17.7;;;;;;;-0.1;100.0;100200;;;;
2022/04/01 03:36:00;;;;;;;19.5;17.7;;;;;;;-0.2;100.0;100200;;;;
2022/04/01 03:37:00;;;;;;;19.5;17.7;;;;;;;-0.2;100.0;100200;;;;
2022/04/01 03:38:00;;;;;;;19.5;17.7;;;;;;;-0.2;100.0;100200;;;;
2022/04/01 03:39:00;;;;;;;19.5;17.7;;;;;;;-0.2;100.0;100200;;;;
2022/04/01 03:40:00;;;;;;;19.5;17.7;;;;;;;-0.2;100.0;100220;;;;
2022/04/01 03:41:00;;;;;;;16.3;14.9;;;;;;;-0.2;100.0;100220;;;;
2022/04/01 03:42:03;;;;;;;16.3;14.9;;;;;;;-0.2;100.0;100210;;;;
2022/04/01 03:43:00;;;;;;;16.3;14.9;;;;;;;-0.2;100.0;100210;;;;
2022/04/01 03:44:00;;;;;;;16.3;14.9;;;;;;;-0.1;100.0;100210;;;;
2022/04/01 03:45:03;;;;;;;16.3;14.9;;;;;;;-0.1;100.0;100210;;;;
2022/04/01 03:46:05;;;;;;;16.3;14.9;;;;;;;-0.1;100.0;100220;;;;
2022/04/01 03:47:02;;;;;;;16.3;14.9;;;;;;;-0.1;100.0;100220;;;;
2022/04/01 03:48:06;;;;;;;16.3;14.9;;;;;;;-0.0;100.0;100210;;;;
2022/04/01 03:49:00;;;;;;;16.3;14.9;;;;;;;-0.0;100.0;100210;;;;
2022/04/01 03:50:02;;;;;;;16.3;14.9;;;;;;;-0.1;100.0;100210;;;;
2022/04/01 03:51:00;;;;;;;16.3;14.9;;;;;;;-0.1;100.0;100210;;;;
2022/04/01 03:52:01;;;;;;;16.3;14.9;;;;;;;-0.1;100.0;100220;;;;
2022/04/01 03:53:01;;;;;;;16.3;14.9;;;;;;;-0.1;100.0;100220;;;;
2022/04/01 03:54:02;;;;;;;16.3;14.9;;;;;;;-0.2;100.0;100220;;;;
2022/04/01 03:55:06;;;;;;;16.3;14.9;;;;;;;-0.2;100.0;100220;;;;
2022/04/01 03:56:01;;;;;;;16.3;14.9;;;;;;;-0.2;100.0;100220;;;;
2022/04/01 03:57:01;;;;;;;16.3;14.9;;;;;;;-0.2;100.0;100220;;;;
2022/04/01 03:58:02;;;;;;;16.3;14.9;;;;;;;-0.2;100.0;100230;;;;
2022/04/01 03:59:01;;;;;;;16.3;14.9;;;;;;;-0.2;100.0;100230;;;;
2022/04/01 04:00:00;;;;;;;16.3;14.9;;;;;;;-0.2;100.0;100240;;;;
2022/04/01 04:01:01;;;;;;;17.1;15.5;;;;;;;-0.2;100.0;100240;;;;
2022/04/01 04:02:00;;;;;;;17.1;15.5;;;;;;;-0.2;100.0;100230;;;;
2022/04/01 04:03:06;;;;;;;17.1;15.5;;;;;;;-0.2;100.0;100230;;;;
2022/04/01 04:04:00;;;;;;;17.1;15.5;;;;;;;-0.2;100.0;100240;;;;
2022/04/01 04:05:01;;;;;;;17.1;15.5;;;;;;;-0.2;100.0;100240;;;;
2022/04/01 04:06:00;;;;;;;17.1;15.5;;;;;;;-0.2;100.0;100240;;;;
2022/04/01 04:07:00;;;;;;;17.1;15.5;;;;;;;-0.2;100.0;100240;;;;
2022/04/01 04:08:01;;;;;;;17.1;15.5;;;;;;;-0.2;100.0;100250;;;;
2022/04/01 04:09:02;;;;;;;17.1;15.5;;;;;;;-0.2;100.0;100250;;;;
2022/04/01 04:10:00;;;;;;;17.1;15.5;;;;;;;-0.2;100.0;100250;;;;
2022/04/01 04:11:00;;;;;;;17.1;15.5;;;;;;;-0.2;100.0;100250;;;;
2022/04/01 04:12:01;;;;;;;17.1;15.5;;;;;;;-0.2;100.0;100240;;;;
2022/04/01 04:13:01;;;;;;;17.1;15.5;;;;;;;-0.2;100.0;100240;;;;
2022/04/01 04:14:01;;;;;;;17.1;15.5;;;;;;;-0.2;100.0;100250;;;;
2022/04/01 04:15:00;;;;;;;17.1;15.5;;;;;;;-0.2;100.0;100250;;;;
2022/04/01 04:16:10;;;;;;;17.1;15.5;;;;;;;-0.1;100.0;100260;;;;
2022/04/01 04:17:06;;;;;;;17.1;15.5;;;;;;;-0.1;100.0;100260;;;;
2022/04/01 04:18:02;;;;;;;17.1;15.5;;;;;;;-0.1;100.0;100260;;;;
2022/04/01 04:19:03;;;;;;;17.1;15.5;;;;;;;-0.1;100.0;100260;;;;
2022/04/01 04:20:02;;;;;;;17.1;15.5;;;;;;;-0.1;100.0;100270;;;;
2022/04/01 04:21:11;;;;;;;17.8;16.1;;;;;;;-0.1;100.0;100270;;;;
2022/04/01 04:22:10;;;;;;;17.8;16.1;;;;;;;-0.0;100.0;100270;;;;
2022/04/01 04:23:01;;;;;;;17.8;16.1;;;;;;;-0.0;100.0;100270;;;;
2022/04/01 04:24:01;;;;;;;17.8;16.1;;;;;;;-0.1;100.0;100270;;;;
2022/04/01 04:25:09;;;;;;;17.8;16.1;;;;;;;-0.1;100.0;100270;;;;
2022/04/01 04:26:04;;;;;;;17.8;16.1;;;;;;;-0.1;100.0;100270;;;;
2022/04/01 04:27:05;;;;;;;17.8;16.1;;;;;;;-0.1;100.0;100270;;;;
2022/04/01 04:28:00;;;;;;;17.8;16.1;;;;;;;-0.1;100.0;100270;;;;
2022/04/01 04:29:08;;;;;;;17.8;16.1;;;;;;;-0.1;100.0;100270;;;;
2022/04/01 04:30:08;;;;;;;17.8;16.1;;;;;;;-0.2;100.0;100270;;;;
2022/04/01 04:31:03;;;;;;;17.8;16.1;;;;;;;-0.2;100.0;100270;;;;
2022/04/01 04:32:02;;;;;;;17.8;16.1;;;;;;;-0.3;100.0;100280;;;;
2022/04/01 04:33:02;;;;;;;17.8;16.1;;;;;;;-0.3;100.0;100280;;;;
2022/04/01 04:34:06;;;;;;;17.8;16.1;;;;;;;-0.3;100.0;100290;;;;
2022/04/01 04:35:04;;;;;;;17.8;16.1;;;;;;;-0.3;100.0;100290;;;;
2022/04/01 04:36:04;;;;;;;17.8;16.1;;;;;;;-0.3;100.0;100290;;;;
2022/04/01 04:37:01;;;;;;;17.8;16.1;;;;;;;-0.3;100.0;100290;;;;
2022/04/01 04:38:00;;;;;;;17.8;16.1;;;;;;;-0.3;100.0;100290;;;;
2022/04/01 04:39:03;;;;;;;17.8;16.1;;;;;;;-0.3;100.0;100290;;;;
2022/04/01 04:40:01;;;;;;;17.8;16.1;;;;;;;-0.2;100.0;100290;;;;
2022/04/01 04:41:00;;;;;;;15.2;13.9;;;;;;;-0.2;100.0;100290;;;;
2022/04/01 04:42:01;;;;;;;15.2;13.9;;;;;;;-0.2;100.0;100290;;;;
2022/04/01 04:43:00;;;;;;;15.2;13.9;;;;;;;-0.2;100.0;100290;;;;
2022/04/01 04:44:01;;;;;;;15.2;13.9;;;;;;;-0.2;100.0;100300;;;;
2022/04/01 04:45:00;;;;;;;15.2;13.9;;;;;;;-0.2;100.0;100300;;;;
2022/04/01 04:46:01;;;;;;;15.2;13.9;;;;;;;-0.2;100.0;100300;;;;
2022/04/01 04:47:01;;;;;;;15.2;13.9;;;;;;;-0.2;100.0;100300;;;;
2022/04/01 04:48:01;;;;;;;15.2;13.9;;;;;;;-0.2;100.0;100310;;;;
2022/04/01 04:49:01;;;;;;;15.2;13.9;;;;;;;-0.2;100.0;100310;;;;
2022/04/01 04:50:01;;;;;;;15.2;13.9;;;;;;;-0.3;100.0;100310;;;;
2022/04/01 04:51:02;;;;;;;15.2;13.9;;;;;;;-0.3;100.0;100310;;;;
2022/04/01 04:52:00;;;;;;;15.2;13.9;;;;;;;-0.3;100.0;100310;;;;
2022/04/01 04:53:01;;;;;;;15.2;13.9;;;;;;;-0.3;100.0;100310;;;;
2022/04/01 04:54:01;;;;;;;15.2;13.9;;;;;;;-0.3;100.0;100310;;;;
2022/04/01 04:55:01;;;;;;;15.2;13.9;;;;;;;-0.3;100.0;100310;;;;
2022/04/01 04:56:01;;;;;;;15.2;13.9;;;;;;;-0.3;100.0;100310;;;;
2022/04/01 04:57:00;;;;;;;15.2;13.9;;;;;;;-0.3;100.0;100310;;;;
2022/04/01 04:58:00;;;;;;;15.2;13.9;;;;;;;-0.2;100.0;100310;;;;
2022/04/01 04:59:01;;;;;;;15.2;13.9;;;;;;;-0.2;100.0;100310;;;;
2022/04/01 05:00:00;;;;;;;15.2;13.9;;;;;;;-0.2;100.0;100310;;;;
2022/04/01 05:01:01;;;;;;;15.5;14.2;;;;;;;-0.2;100.0;100310;;;;
2022/04/01 05:02:01;;;;;;;15.5;14.2;;;;;;;-0.2;100.0;100320;;;;
2022/04/01 05:03:11;;;;;;;15.5;14.2;;;;;;;-0.2;100.0;100320;;;;
2022/04/01 05:04:10;;;;;;;15.5;14.2;;;;;;;-0.2;100.0;100330;;;;
2022/04/01 05:05:01;;;;;;;15.5;14.2;;;;;;;-0.2;100.0;100330;;;;
2022/04/01 05:06:01;;;;;;;15.5;14.2;;;;;;;-0.2;100.0;100330;;;;
2022/04/01 05:07:10;;;;;;;15.5;14.2;;;;;;;-0.2;100.0;100330;;;;
2022/04/01 05:08:05;;;;;;;15.5;14.2;;;;;;;-0.2;100.0;100330;;;;
2022/04/01 05:09:05;;;;;;;15.5;14.2;;;;;;;-0.2;100.0;100330;;;;
2022/04/01 05:10:07;;;;;;;15.5;14.2;;;;;;;-0.2;100.0;100340;;;;
2022/04/01 05:11:10;;;;;;;15.5;14.2;;;;;;;-0.2;100.0;100340;;;;
2022/04/01 05:12:04;;;;;;;15.5;14.2;;;;;;;-0.3;100.0;100340;;;;
2022/04/01 05:13:08;;;;;;;15.5;14.2;;;;;;;-0.3;100.0;100340;;;;
2022/04/01 05:14:00;;;;;;;15.5;14.2;;;;;;;-0.3;100.0;100350;;;;
2022/04/01 05:15:08;;;;;;;15.5;14.2;;;;;;;-0.3;100.0;100350;;;;
2022/04/01 05:16:05;;;;;;;15.5;14.2;;;;;;;-0.3;100.0;100340;;;;
2022/04/01 05:17:02;;;;;;;15.5;14.2;;;;;;;-0.3;100.0;100340;;;;
2022/04/01 05:18:05;;;;;;;15.5;14.2;;;;;;;-0.3;100.0;100350;;;;
2022/04/01 05:19:06;;;;;;;15.5;14.2;;;;;;;-0.3;100.0;100350;;;;
2022/04/01 05:20:00;;;;;;;15.5;14.2;;;;;;;-0.2;100.0;100350;;;;
2022/04/01 05:21:01;;;;;;;14.1;13.0;;;;;;;-0.2;100.0;100350;;;;
2022/04/01 05:22:04;;;;;;;14.1;13.0;;;;;;;-0.1;100.0;100350;;;;
2022/04/01 05:23:05;;;;;;;14.1;13.0;;;;;;;-0.1;100.0;100350;;;;
2022/04/01 05:24:00;;;;;;;14.1;13.0;;;;;;;-0.2;100.0;100350;;;;
2022/04/01 05:25:01;;;;;;;14.1;13.0;;;;;;;-0.2;100.0;100350;;;;
2022/04/01 05:26:08;;;;;;;14.1;13.0;;;;;;;-0.2;100.0;100360;;;;
2022/04/01 05:27:02;;;;;;;14.1;13.0;;;;;;;-0.2;100.0;100360;;;;
2022/04/01 05:28:00;;;;;;;14.1;13.0;;;;;;;-0.4;100.0;100360;;;;
2022/04/01 05:29:01;;;;;;;14.1;13.0;;;;;;;-0.4;100.0;100360;;;;
2022/04/01 05:30:04;;;;;;;14.1;13.0;;;;;;;-0.4;100.0;100380;;;;
2022/04/01 05:31:10;;;;;;;14.1;13.0;;;;;;;-0.4;100.0;100380;;;;
2022/04/01 05:32:03;;;;;;;14.1;13.0;;;;;;;-0.3;100.0;100360;;;;
2022/04/01 05:33:10;;;;;;;14.1;13.0;;;;;;;-0.3;100.0;100360;;;;
2022/04/01 05:34:07;;;;;;;14.1;13.0;;;;;;;-0.4;100.0;100370;;;;
2022/04/01 05:35:02;;;;;;;14.1;13.0;;;;;;;-0.4;100.0;100370;;;;
2022/04/01 05:36:00;;;;;;;14.1;13.0;;;;;;;-0.4;100.0;100370;;;;
2022/04/01 05:37:01;;;;;;;14.1;13.0;;;;;;;-0.4;100.0;100370;;;;
2022/04/01 05:38:00;;;;;;;14.1;13.0;;;;;;;-0.3;100.0;100380;;;;
2022/04/01 05:39:00;;;;;;;14.1;13.0;;;;;;;-0.3;100.0;100380;;;;
2022/04/01 05:40:05;;;;;;;15.1;13.9;;;;;;;-0.3;100.0;100380;;;;
2022/04/01 05:41:01;;;;;;;15.1;13.9;;;;;;;-0.3;100.0;100380;;;;
2022/04/01 05:42:00;;;;;;;15.1;13.9;;;;;;;-0.3;100.0;100370;;;;
2022/04/01 05:43:01;;;;;;;15.1;13.9;;;;;;;-0.3;100.0;100370;;;;
2022/04/01 05:44:00;;;;;;;15.1;13.9;;;;;;;-0.4;100.0;100390;;;;
2022/04/01 05:45:01;;;;;;;15.1;13.9;;;;;;;-0.4;100.0;100390;;;;
2022/04/01 05:46:01;;;;;;;15.1;13.9;;;;;;;-0.4;100.0;100390;;;;
2022/04/01 05:47:01;;;;;;;15.1;13.9;;;;;;;-0.4;100.0;100390;;;;
2022/04/01 05:48:01;;;;;;;15.1;13.9;;;;;;;-0.4;100.0;100390;;;;
2022/04/01 05:49:00;;;;;;;15.1;13.9;;;;;;;-0.4;100.0;100390;;;;
2022/04/01 05:50:00;;;;;;;15.1;13.9;;;;;;;-0.5;100.0;100390;;;;
2022/04/01 05:51:06;;;;;;;15.1;13.9;;;;;;;-0.5;100.0;100390;;;;
2022/04/01 05:52:01;;;;;;;15.1;13.9;;;;;;;-0.4;100.0;100390;;;;
2022/04/01 05:53:01;;;;;;;15.1;13.9;;;;;;;-0.4;100.0;100390;;;;
2022/04/01 05:54:01;;;;;;;15.1;13.9;;;;;;;-0.4;100.0;100400;;;;
2022/04/01 05:55:00;;;;;;;15.1;13.9;;;;;;;-0.4;100.0;100400;;;;
2022/04/01 05:56:00;;;;;;;15.1;13.9;;;;;;;-0.3;100.0;100410;;;;
2022/04/01 05:57:02;;;;;;;15.1;13.9;;;;;;;-0.3;100.0;100410;;;;
2022/04/01 05:58:03;;;;;;;15.1;13.9;;;;;;;-0.4;100.0;100410;;;;
2022/04/01 05:59:00;;;;;;;15.1;13.9;;;;;;;-0.4;100.0;100410;;;;
2022/04/01 06:00:02;;;;;;;13.7;12.5;;;;;;;-0.3;100.0;100420;;;;
2022/04/01 06:01:10;;;;;;;13.7;12.5;;;;;;;-0.3;100.0;100420;;;;
2022/04/01 06:02:10;;;;;;;13.7;12.5;;;;;;;-0.3;100.0;100410;;;;
2022/04/01 06:03:09;;;;;;;13.7;12.5;;;;;;;-0.3;100.0;100410;;;;
2022/04/01 06:04:12;;;;;;;13.7;12.5;;;;;;;-0.3;100.0;100420;;;;
2022/04/01 06:05:01;;;;;;;13.7;12.5;;;;;;;-0.3;100.0;100420;;;;
2022/04/01 06:06:03;;;;;;;13.7;12.5;;;;;;;-0.5;100.0;100420;;;;
2022/04/01 06:07:09;;;;;;;13.7;12.5;;;;;;;-0.5;100.0;100420;;;;
2022/04/01 06:08:10;;;;;;;13.7;12.5;;;;;;;-0.3;100.0;100430;;;;
2022/04/01 06:09:07;;;;;;;13.7;12.5;;;;;;;-0.3;100.0;100430;;;;
2022/04/01 06:10:05;;;;;;;13.7;12.5;;;;;;;-0.3;100.0;100430;;;;
2022/04/01 06:11:09;;;;;;;13.7;12.5;;;;;;;-0.3;100.0;100430;;;;
2022/04/01 06:12:01;;;;;;;13.7;12.5;;;;;;;-0.3;100.0;100430;;;;
2022/04/01 06:13:00;;;;;;;13.7;12.5;;;;;;;-0.3;100.0;100430;;;;
2022/04/01 06:14:02;;;;;;;13.7;12.5;;;;;;;-0.4;100.0;100430;;;;
2022/04/01 06:15:06;;;;;;;13.7;12.5;;;;;;;-0.4;100.0;100430;;;;
2022/04/01 06:16:10;;;;;;;13.7;12.5;;;;;;;-0.3;100.0;100440;;;;
2022/04/01 06:17:05;;;;;;;13.7;12.5;;;;;;;-0.3;100.0;100440;;;;
2022/04/01 06:18:00;;;;;;;13.7;12.5;;;;;;;-0.3;100.0;100440;;;;
2022/04/01 06:19:10;;;;;;;13.7;12.5;;;;;;;-0.3;100.0;100440;;;;